createdAt,value
2023-12-03T00:00:43.018Z,2.50
2023-12-03T00:03:29.628Z,2.70
2023-12-03T00:05:56.221Z,2.40
2023-12-03T00:08:22.856Z,2.30
2023-12-03T00:10:50.955Z,2.20
2023-12-03T00:13:17.488Z,2.00
2023-12-03T00:15:44.068Z,2.00
2023-12-03T00:18:10.888Z,1.80
2023-12-03T00:20:37.514Z,2.20
2023-12-03T00:25:30.692Z,2.20
2023-12-03T00:30:23.793Z,2.40
2023-12-03T00:32:50.320Z,2.10
2023-12-03T00:35:16.768Z,2.00
2023-12-03T00:37:43.383Z,2.20
2023-12-03T00:42:41.372Z,2.00
2023-12-03T00:47:34.482Z,2.20
2023-12-03T00:52:27.832Z,2.40
2023-12-03T01:02:23.839Z,2.80
2023-12-03T01:07:21.682Z,2.70
2023-12-03T01:09:48.305Z,2.70
2023-12-03T01:12:14.961Z,2.10
2023-12-03T01:14:41.473Z,2.40
2023-12-03T01:17:08.057Z,2.70
2023-12-03T01:19:34.718Z,3.00
2023-12-03T01:32:08.735Z,3.10
2023-12-03T01:34:35.379Z,3.10
2023-12-03T01:37:02.054Z,2.60
2023-12-03T01:39:28.689Z,3.10
2023-12-03T01:41:55.266Z,2.40
2023-12-03T01:46:53.300Z,2.70
2023-12-03T01:49:19.965Z,2.80
2023-12-03T01:54:13.210Z,4.30
2023-12-03T01:56:39.917Z,4.80
2023-12-03T01:59:06.421Z,6.70
2023-12-03T02:01:33.037Z,7.90
2023-12-03T02:03:59.727Z,10.30
2023-12-03T02:08:57.775Z,10.20
2023-12-03T02:11:24.296Z,11.00
2023-12-03T02:13:51.954Z,11.00
2023-12-03T02:16:18.535Z,10.90
2023-12-03T02:18:45.144Z,11.60
2023-12-03T02:21:11.763Z,12.20
2023-12-03T02:23:38.349Z,12.80
2023-12-03T02:26:05.090Z,12.70
2023-12-03T02:31:03.234Z,12.10
2023-12-03T02:33:29.954Z,13.10
2023-12-03T02:38:23.007Z,13.30
2023-12-03T02:40:49.547Z,14.50
2023-12-03T02:43:16.154Z,12.70
2023-12-03T02:45:42.720Z,15.00
2023-12-03T02:48:09.392Z,14.80
2023-12-03T02:50:35.907Z,14.30
2023-12-03T02:53:02.575Z,14.40
2023-12-03T02:55:29.094Z,15.00
2023-12-03T03:00:22.322Z,13.70
2023-12-03T03:02:48.866Z,14.70
2023-12-03T03:05:15.619Z,15.60
2023-12-03T03:07:42.112Z,17.10
2023-12-03T03:10:08.744Z,15.90
2023-12-03T03:12:35.387Z,15.80
2023-12-03T03:15:02.179Z,16.30
2023-12-03T03:19:55.443Z,17.30
2023-12-03T03:22:22.118Z,16.10
2023-12-03T03:24:48.781Z,14.10
2023-12-03T03:27:15.350Z,15.50
2023-12-03T03:29:41.940Z,17.40
2023-12-03T03:32:08.549Z,17.80
2023-12-03T03:34:35.184Z,16.30
2023-12-03T03:37:02.192Z,18.80
2023-12-03T03:39:28.696Z,17.60
2023-12-03T03:41:55.337Z,17.70
2023-12-03T03:44:21.947Z,17.50
2023-12-03T03:46:48.626Z,18.00
2023-12-03T03:49:15.126Z,19.90
2023-12-03T03:51:41.716Z,19.70
2023-12-03T03:54:08.204Z,19.10
2023-12-03T03:56:34.741Z,18.90
2023-12-03T03:59:01.304Z,21.40
2023-12-03T04:01:27.961Z,21.20
2023-12-03T04:03:54.576Z,20.20
2023-12-03T04:06:21.384Z,21.50
2023-12-03T04:08:49.278Z,22.00
2023-12-03T04:11:15.805Z,22.00
2023-12-03T04:13:42.476Z,20.50
2023-12-03T04:16:09.313Z,20.30
2023-12-03T04:18:39.687Z,19.30
2023-12-03T04:21:13.475Z,21.80
2023-12-03T04:23:40.079Z,21.80
2023-12-03T04:26:09.735Z,19.60
2023-12-03T04:28:40.198Z,21.30
2023-12-03T04:31:15.198Z,24.90
2023-12-03T04:33:41.820Z,23.10
2023-12-03T04:36:08.486Z,18.70
2023-12-03T04:38:36.344Z,21.20
2023-12-03T04:41:02.807Z,16.80
2023-12-03T04:43:29.417Z,19.90
2023-12-03T04:45:55.980Z,19.60
2023-12-03T04:48:23.073Z,22.30
2023-12-03T04:50:50.160Z,19.00
2023-12-03T04:53:16.835Z,18.20
2023-12-03T04:55:43.489Z,20.80
2023-12-03T04:58:10.074Z,17.70
2023-12-03T05:00:36.769Z,18.80
2023-12-03T05:03:03.481Z,16.80
2023-12-03T05:07:56.795Z,16.40
2023-12-03T05:10:23.397Z,18.20
2023-12-03T05:12:50.109Z,20.20
2023-12-03T05:15:16.633Z,17.10
2023-12-03T05:17:43.264Z,16.00
2023-12-03T05:20:10.260Z,14.40
2023-12-03T05:25:03.477Z,15.50
2023-12-03T05:29:56.505Z,16.40
2023-12-03T05:32:22.962Z,15.20
2023-12-03T05:34:49.496Z,16.20
2023-12-03T05:37:16.137Z,15.60
2023-12-03T05:39:42.853Z,16.60
2023-12-03T05:42:09.544Z,15.60
2023-12-03T05:44:36.213Z,15.80
2023-12-03T05:47:02.891Z,18.30
2023-12-03T05:49:29.814Z,17.00
2023-12-03T05:51:56.638Z,17.20
2023-12-03T05:54:23.194Z,16.00
2023-12-03T05:56:49.883Z,17.00
2023-12-03T06:01:48.520Z,16.30
2023-12-03T06:04:15.122Z,16.30
2023-12-03T06:09:13.540Z,18.00
2023-12-03T06:11:40.044Z,17.50
2023-12-03T06:14:06.769Z,17.00
2023-12-03T06:16:33.381Z,17.00
2023-12-03T06:19:00.077Z,17.80
2023-12-03T06:21:26.831Z,17.50
2023-12-03T06:23:53.403Z,15.80
2023-12-03T06:28:51.271Z,16.30
2023-12-03T06:31:17.974Z,14.40
2023-12-03T06:33:46.957Z,12.70
2023-12-03T06:36:13.608Z,15.30
2023-12-03T06:38:40.215Z,16.00
2023-12-03T06:41:06.757Z,14.50
2023-12-03T06:43:33.409Z,14.10
2023-12-03T06:46:00.064Z,14.80
2023-12-03T06:48:26.774Z,16.50
2023-12-03T06:50:53.609Z,14.80
2023-12-03T06:53:20.248Z,15.90
2023-12-03T06:55:46.678Z,14.10
2023-12-03T06:58:13.178Z,17.10
2023-12-03T07:00:39.802Z,14.90
2023-12-03T07:03:06.487Z,14.60
2023-12-03T07:05:33.183Z,13.70
2023-12-03T07:07:59.715Z,16.20
2023-12-03T07:10:26.249Z,15.30
2023-12-03T07:17:57.634Z,15.70
2023-12-03T07:20:24.206Z,16.50
2023-12-03T07:25:22.704Z,15.20
2023-12-03T07:30:16.012Z,12.10
2023-12-03T07:32:42.658Z,15.20
2023-12-03T07:35:09.800Z,15.00
2023-12-03T07:40:02.873Z,15.10
2023-12-03T07:42:29.451Z,14.00
2023-12-03T07:44:55.990Z,14.70
2023-12-03T07:47:22.510Z,14.50
2023-12-03T07:49:49.095Z,14.90
2023-12-03T07:52:15.673Z,14.70
2023-12-03T07:57:14.469Z,14.20
2023-12-03T08:02:07.822Z,13.90
2023-12-03T08:04:35.176Z,13.40
2023-12-03T08:07:02.000Z,15.10
2023-12-03T08:09:28.808Z,16.10
2023-12-03T08:11:55.632Z,15.70
2023-12-03T08:14:22.166Z,15.50
2023-12-03T08:16:48.841Z,15.00
2023-12-03T08:21:47.920Z,14.10
2023-12-03T08:24:15.048Z,14.80
2023-12-03T08:29:08.988Z,13.80
2023-12-03T08:31:36.840Z,13.00
2023-12-03T08:34:03.694Z,14.70
2023-12-03T08:38:58.973Z,12.90
2023-12-03T08:41:26.179Z,14.30
2023-12-03T08:43:52.945Z,13.90
2023-12-03T08:46:21.119Z,13.80
2023-12-03T08:48:48.140Z,13.90
2023-12-03T08:53:42.248Z,13.70
2023-12-03T08:56:12.671Z,13.90
2023-12-03T08:58:40.081Z,13.10
2023-12-03T09:01:09.077Z,13.50
2023-12-03T09:03:37.981Z,14.00
2023-12-03T09:06:08.092Z,13.40
2023-12-03T09:08:34.706Z,12.30
2023-12-03T09:11:01.580Z,12.40
2023-12-03T09:15:56.870Z,11.30
2023-12-03T09:18:26.717Z,11.30
2023-12-03T09:20:53.531Z,12.40
2023-12-03T09:23:20.345Z,10.90
2023-12-03T09:25:46.966Z,11.40
2023-12-03T09:28:13.535Z,11.00
2023-12-03T09:30:43.397Z,12.60
2023-12-03T09:33:09.938Z,11.50
2023-12-03T09:35:36.769Z,11.50
2023-12-03T09:38:03.328Z,10.90
2023-12-03T09:40:32.302Z,12.60
2023-12-03T09:43:00.791Z,12.40
2023-12-03T09:45:28.630Z,11.10
2023-12-03T09:47:59.935Z,11.10
2023-12-03T09:50:28.386Z,11.30
2023-12-03T09:52:58.353Z,9.40
2023-12-03T09:55:29.107Z,10.10
2023-12-03T09:57:58.666Z,10.00
2023-12-03T10:00:25.488Z,9.60
2023-12-03T10:02:57.667Z,9.00
2023-12-03T10:05:28.571Z,9.70
2023-12-03T10:07:57.555Z,10.20
2023-12-03T10:10:25.471Z,9.40
2023-12-03T10:12:52.855Z,10.40
2023-12-03T10:15:19.493Z,9.50
2023-12-03T10:20:21.943Z,9.80
2023-12-03T10:22:49.373Z,8.80
2023-12-03T10:25:25.320Z,9.40
2023-12-03T10:27:54.760Z,10.80
2023-12-03T10:30:26.909Z,9.70
2023-12-03T10:32:53.877Z,9.80
2023-12-03T10:37:52.683Z,9.90
2023-12-03T10:40:19.177Z,10.20
2023-12-03T10:42:46.029Z,9.40
2023-12-03T10:45:18.214Z,9.80
2023-12-03T10:47:47.876Z,9.60
2023-12-03T10:50:16.854Z,9.30
2023-12-03T10:52:43.634Z,9.80
2023-12-03T10:55:10.393Z,9.90
2023-12-03T10:57:52.874Z,9.60
2023-12-03T11:00:22.794Z,9.20
2023-12-03T11:03:09.644Z,9.40
2023-12-03T11:05:39.702Z,10.70
2023-12-03T11:08:06.290Z,8.90
2023-12-03T11:10:35.217Z,8.80
2023-12-03T11:13:02.037Z,9.30
2023-12-03T11:15:28.709Z,10.00
2023-12-03T11:17:58.150Z,9.90
2023-12-03T11:20:28.383Z,9.40
2023-12-03T11:23:14.382Z,9.60
2023-12-03T11:25:52.279Z,9.50
2023-12-03T11:28:19.431Z,9.70
2023-12-03T11:30:47.023Z,8.90
2023-12-03T11:33:14.097Z,11.30
2023-12-03T11:35:44.136Z,9.90
2023-12-03T11:46:12.487Z,10.30
2023-12-03T11:48:39.657Z,10.80
2023-12-03T11:51:09.140Z,11.10
2023-12-03T11:53:59.795Z,10.20
2023-12-03T11:56:28.293Z,9.70
2023-12-03T11:58:56.021Z,9.60
2023-12-03T12:01:25.691Z,9.80
2023-12-03T12:03:52.319Z,10.10
2023-12-03T12:06:28.196Z,9.60
2023-12-03T12:11:28.856Z,9.10
2023-12-03T12:13:56.793Z,11.60
2023-12-03T12:16:26.391Z,11.40
2023-12-03T12:18:53.376Z,9.50
2023-12-03T12:21:20.051Z,10.40
2023-12-03T12:23:52.600Z,11.20
2023-12-03T12:26:20.328Z,11.50
2023-12-03T12:28:48.475Z,10.10
2023-12-03T12:46:30.156Z,23.90
2023-12-03T12:49:12.579Z,18.20
2023-12-03T12:51:41.439Z,20.30
2023-12-03T12:54:14.700Z,15.50
2023-12-03T12:56:43.034Z,15.40
2023-12-03T12:59:12.251Z,14.30
2023-12-03T13:01:39.069Z,15.50
2023-12-03T13:04:06.637Z,14.70
2023-12-03T13:06:34.324Z,15.90
2023-12-03T13:09:01.369Z,15.40
2023-12-03T13:11:35.059Z,14.20
2023-12-03T13:14:02.936Z,14.80
2023-12-03T13:16:29.961Z,14.30
2023-12-03T13:21:23.460Z,12.90
2023-12-03T13:23:50.462Z,13.60
2023-12-03T13:28:47.142Z,15.50
2023-12-03T13:31:15.131Z,14.70
2023-12-03T13:33:41.779Z,15.10
2023-12-03T13:36:09.708Z,14.30
2023-12-03T13:38:38.493Z,15.00
2023-12-03T13:41:07.593Z,14.00
2023-12-03T13:43:34.117Z,13.90
2023-12-03T13:46:00.769Z,13.60
2023-12-03T13:48:29.726Z,15.10
2023-12-03T13:50:59.175Z,13.70
2023-12-03T13:53:25.676Z,14.90
2023-12-03T13:55:52.230Z,14.70
2023-12-03T13:58:19.187Z,14.00
2023-12-03T14:00:45.720Z,13.60
2023-12-03T14:03:12.381Z,13.40
2023-12-03T14:05:39.889Z,14.50
2023-12-03T14:08:07.535Z,15.00
2023-12-03T14:10:35.294Z,13.70
2023-12-03T14:13:02.055Z,14.00
2023-12-03T14:15:28.832Z,14.00
2023-12-03T14:17:58.498Z,14.10
2023-12-03T14:20:26.820Z,14.80
2023-12-03T14:22:54.899Z,12.60
2023-12-03T14:25:24.248Z,15.30
2023-12-03T14:27:51.437Z,11.90
2023-12-03T14:32:53.343Z,15.00
2023-12-03T14:35:22.306Z,13.80
2023-12-03T14:37:49.222Z,16.30
2023-12-03T14:40:16.596Z,14.20
2023-12-03T14:42:43.543Z,13.20
2023-12-03T14:45:13.980Z,13.00
2023-12-03T14:47:41.756Z,13.30
2023-12-03T14:50:13.291Z,14.30
2023-12-03T14:52:40.682Z,14.00
2023-12-03T14:55:14.763Z,14.70
2023-12-03T14:57:41.502Z,14.30
2023-12-03T15:00:12.097Z,17.90
2023-12-03T15:02:39.512Z,16.40
2023-12-03T15:05:06.536Z,13.30
2023-12-03T15:10:07.269Z,14.80
2023-12-03T15:12:35.071Z,13.40
2023-12-03T15:15:07.204Z,13.00
2023-12-03T15:22:37.762Z,14.20
2023-12-03T15:25:06.837Z,14.80
2023-12-03T15:27:36.541Z,14.30
2023-12-03T15:30:03.513Z,14.90
2023-12-03T15:34:57.497Z,14.90
2023-12-03T15:39:58.553Z,15.60
2023-12-03T15:42:25.588Z,15.20
2023-12-03T15:44:52.493Z,14.40
2023-12-03T15:47:22.011Z,14.60
2023-12-03T15:49:50.314Z,14.60
2023-12-03T15:52:18.529Z,15.50
2023-12-03T15:54:47.303Z,17.10
2023-12-03T15:57:14.879Z,16.30
2023-12-03T15:59:43.829Z,16.10
2023-12-03T16:02:10.426Z,14.60
2023-12-03T16:04:37.134Z,15.30
2023-12-03T16:07:06.448Z,16.50
2023-12-03T16:09:33.070Z,16.00
2023-12-03T17:06:34.860Z,10.70
2023-12-03T17:09:03.766Z,11.00
2023-12-03T17:14:16.909Z,9.70
2023-12-03T17:16:46.210Z,13.20
2023-12-03T17:19:14.595Z,8.40
2023-12-03T17:21:42.986Z,8.90
2023-12-03T17:24:19.022Z,10.40
2023-12-03T17:26:48.134Z,7.80
2023-12-03T17:29:19.147Z,7.90
2023-12-03T17:31:47.522Z,6.20
2023-12-03T17:34:17.843Z,6.60
2023-12-03T17:36:46.235Z,6.50
2023-12-03T17:39:15.927Z,7.90
2023-12-03T17:41:47.207Z,8.00
2023-12-03T17:44:15.373Z,8.10
2023-12-03T17:46:50.556Z,5.20
2023-12-03T17:49:21.695Z,7.70
2023-12-03T17:51:54.653Z,6.10
2023-12-03T17:57:06.461Z,5.20
2023-12-03T17:59:34.504Z,6.30
2023-12-03T18:02:04.427Z,6.10
2023-12-03T18:04:34.440Z,6.60
2023-12-03T18:07:03.991Z,6.50
2023-12-03T18:17:29.346Z,5.80
2023-12-03T18:19:58.070Z,5.40
2023-12-03T18:22:26.362Z,5.80
2023-12-03T18:24:55.181Z,8.50
2023-12-03T18:27:24.491Z,5.40
2023-12-03T18:29:52.826Z,7.40
2023-12-03T18:32:21.072Z,5.70
2023-12-03T18:34:51.743Z,5.30
2023-12-03T18:37:21.115Z,5.80
2023-12-03T18:39:49.264Z,5.00
2023-12-03T18:42:17.682Z,5.90
2023-12-03T18:44:45.966Z,5.80
2023-12-03T18:47:15.371Z,4.60
2023-12-03T18:49:44.695Z,5.20
2023-12-03T18:52:13.216Z,6.10
2023-12-03T18:54:44.236Z,6.20
2023-12-03T18:57:15.817Z,7.00
2023-12-03T18:59:46.318Z,8.40
2023-12-03T19:02:15.411Z,6.10
2023-12-03T19:04:46.463Z,6.50
2023-12-03T19:07:16.531Z,7.50
2023-12-03T19:09:44.724Z,6.00
2023-12-03T19:12:12.984Z,6.90
2023-12-03T19:14:43.938Z,6.20
2023-12-03T19:17:17.935Z,5.50
2023-12-03T19:19:46.048Z,7.50
2023-12-03T19:22:14.480Z,6.80
2023-12-03T19:24:43.348Z,8.50
2023-12-03T19:27:14.112Z,7.60
2023-12-03T19:29:43.623Z,9.00
2023-12-03T19:32:13.406Z,7.20
2023-12-03T19:34:42.349Z,8.00
2023-12-03T19:37:11.311Z,7.30
2023-12-03T19:47:25.801Z,8.60
2023-12-03T19:49:54.507Z,6.20
2023-12-03T19:52:23.811Z,7.60
2023-12-03T19:54:53.783Z,7.20
2023-12-03T19:57:22.151Z,6.70
2023-12-03T19:59:50.493Z,6.60
2023-12-03T20:02:18.759Z,5.80
2023-12-03T20:09:53.556Z,8.30
2023-12-03T20:12:23.648Z,6.30
2023-12-03T20:14:52.941Z,6.40
2023-12-03T20:17:21.587Z,7.60
2023-12-03T20:19:50.577Z,6.50
2023-12-03T20:22:19.413Z,6.60
2023-12-03T20:32:29.845Z,7.00
2023-12-03T20:35:01.488Z,6.00
2023-12-03T20:37:30.824Z,6.00
2023-12-03T20:40:04.811Z,6.60
2023-12-03T20:42:33.224Z,5.60
2023-12-03T20:45:01.411Z,6.50
2023-12-03T20:47:29.568Z,7.00
2023-12-03T20:49:59.097Z,7.70
2023-12-03T20:55:03.025Z,7.40
2023-12-03T20:57:31.474Z,5.30
2023-12-03T21:00:00.893Z,6.90
2023-12-03T21:02:29.622Z,5.90
2023-12-03T21:04:59.349Z,5.50
2023-12-03T21:07:28.849Z,6.30
2023-12-03T21:12:33.405Z,6.60
2023-12-03T21:15:01.669Z,8.00
2023-12-03T21:17:29.816Z,6.70
2023-12-03T21:19:58.119Z,7.90
2023-12-03T21:22:26.487Z,6.50
2023-12-03T21:24:54.960Z,6.20
2023-12-03T21:27:22.943Z,7.60
2023-12-03T21:29:51.523Z,7.20
2023-12-03T21:32:19.933Z,7.70
2023-12-03T21:34:48.207Z,6.60
2023-12-03T21:37:20.259Z,7.40
2023-12-03T21:39:49.487Z,7.50
2023-12-03T21:42:17.839Z,7.20
2023-12-03T21:44:45.999Z,7.00
2023-12-03T21:47:14.269Z,8.10
2023-12-03T21:49:43.254Z,10.40
2023-12-03T21:52:11.464Z,8.80
2023-12-03T21:54:39.719Z,15.50
2023-12-03T21:57:07.836Z,11.60
2023-12-03T21:59:35.835Z,10.20
2023-12-03T22:02:04.368Z,8.00
2023-12-03T22:04:33.034Z,6.80
2023-12-03T22:07:01.781Z,8.20
2023-12-03T22:09:30.031Z,7.90
2023-12-03T22:11:58.201Z,8.20
2023-12-03T22:14:26.275Z,7.40
2023-12-03T22:16:54.236Z,6.70
2023-12-03T22:19:22.398Z,7.60
2023-12-03T22:21:50.634Z,8.10
2023-12-03T22:24:18.926Z,6.90
2023-12-03T22:26:46.894Z,6.40
2023-12-03T22:29:25.796Z,7.40
2023-12-03T22:31:59.131Z,10.10
2023-12-03T22:34:27.550Z,6.20
2023-12-03T22:36:55.619Z,6.60
2023-12-03T22:39:23.649Z,11.90
2023-12-03T22:41:51.662Z,9.90
2023-12-03T22:44:19.888Z,7.10
2023-12-03T22:46:47.991Z,7.80
2023-12-03T22:49:19.254Z,8.40
2023-12-03T22:51:49.322Z,9.60
2023-12-03T22:54:17.531Z,7.40
2023-12-03T22:56:45.677Z,10.20
2023-12-03T22:59:13.670Z,9.30
2023-12-03T23:01:43.694Z,8.40
2023-12-03T23:04:13.244Z,7.70
2023-12-03T23:06:41.721Z,7.90
2023-12-03T23:09:09.963Z,8.00
2023-12-03T23:11:38.051Z,8.20
2023-12-03T23:14:06.277Z,12.80
2023-12-03T23:16:43.504Z,14.00
2023-12-03T23:19:12.314Z,8.60
2023-12-03T23:21:41.353Z,6.80
2023-12-03T23:24:09.411Z,7.50
2023-12-03T23:26:41.395Z,7.60
2023-12-03T23:29:09.928Z,7.00
2023-12-03T23:31:38.018Z,7.10
2023-12-03T23:34:06.535Z,7.60
2023-12-03T23:36:34.849Z,9.10
2023-12-03T23:39:03.150Z,7.10
2023-12-03T23:41:31.474Z,6.40
2023-12-03T23:43:59.824Z,6.20
2023-12-03T23:46:28.119Z,7.30
2023-12-03T23:48:56.516Z,6.20
2023-12-03T23:51:24.732Z,9.70
2023-12-03T23:53:53.434Z,7.80
2023-12-03T23:56:24.720Z,6.60
2023-12-03T23:58:54.712Z,7.70
